Tiempo atmosférico en la estación meteorológica de Madrid Aeropuerto, Madrid (609 m.)



Fecha
DESCASC
Temp. máxima en grados centígrados (hora)
DESCASC
Temp. mínima en grados centígrados (hora)
DESCASC
Temp. media en grados centígrados
DESCASC
Racha de viento máxima en m/sg (hora)
DESCASC
Velocidad máxima media en intervalos de 10 minutos(hora)
DESCASC
Precipitaciones diarias en mm
DESCASC
Precipitaciones de 00:00 a 06:00 en mm
DESCASC
Precipitaciones de 06:00 a 12:00 en mm
DESCASC
Precipitaciones de 12:00 a 18:00 en mm
DESCASC
Precipitaciones de 18:00 a 24:00 en mm
DESCASC
29-03-2020 20 (16:40) 0.7 (07:40) 10.3 7.78 (20:00) 4.72 (21:10) 0 0 0 0 0
28-03-2020 17 (17:40) -0.5 (07:00) 8.3 5.83 (16:30) 3.33 (20:40) 0 0 0 0 0
27-03-2020 12.2 (17:30) 2.7 (08:40) 7.4 10.28 (19:30) 6.67 (19:30) 1.2 0 1.2 0 0
26-03-2020 16.6 (15:30) 2.8 (00:00) 9.7 11.39 (16:00) 7.78 (16:00) 0 0 0 0 0
25-03-2020 17.7 (16:50) 7.2 (00:00) 12.5 8.33 (15:40) 4.72 (18:30) 0 0 0 0 0
24-03-2020 16.8 (13:20) 8.6 (00:00) 12.7 9.17 (10:20) 5 (11:30) 0.1 0 0.1 0 0
23-03-2020 16.4 (15:30) 8.2 (00:00) 12.3 9.72 (16:30) 7.22 (16:40) 7.7 5.2 2.5 0 0
22-03-2020 12.7 (12:10) 6.1 (07:10) 9.4 7.22 (12:20) 5.28 (16:00) 5.1 0.1 0 0 5
21-03-2020 10.2 (13:00) 7.5 (00:00) 8.8 8.33 (14:30) 4.72 (14:20) 1.5 0 0.6 0.2 0.7
20-03-2020 13.4 (14:40) 7.8 (00:00) 10.6 8.33 (14:00) 5.28 (14:00) 0 0 0 0 0
19-03-2020 18.1 (15:20) 9.2 (00:00) 13.7 7.78 (19:50) 5.83 (19:50) 0 0 0 0 0
18-03-2020 17 (14:30) 8.3 (00:00) 12.7 6.11 (00:50) 4.17 (01:00) 0 0 0 0 0
17-03-2020 18.1 (16:10) 5.4 (00:00) 11.8 10.83 (15:30) 6.39 (15:30) 0.7 0.1 0.6 0 0
16-03-2020 11.4 (00:00) 4.4 (00:00) 7.9 10.28 (00:10) 6.94 (00:10) 5.3 3.4 0 1.6 0.3
15-03-2020 21.3 (15:10) 5.3 (00:00) 13.3 13.33 (19:30) 8.33 (23:59) 6.4 0 0 0 6.4
14-03-2020 23.4 (17:20) 7.1 (00:00) 15.2 5 (13:50) 3.06 (04:40) 0 0 0 0 0
13-03-2020 23.9 (15:50) 7.4 (07:50) 15.6 6.67 (14:50) 3.89 (17:20) 0 0 0 0 0
12-03-2020 25 (15:10) 7.1 (00:00) 16 5.83 (17:10) 2.78 (15:50) 0 0 0 0 0
11-03-2020 26 (15:50) 4.7 (00:00) 15.3 5.83 (17:00) 3.61 (17:30) 0 0 0 0 0
10-03-2020 23.4 (17:50) 3.5 (00:00) 13.4 6.11 (17:10) 3.89 (19:00) 0 0 0 0 0
09-03-2020 18.3 (15:50) 5 (00:00) 11.6 10.28 (04:40) 6.94 (03:30) 0 0 0 0 0
08-03-2020 16.3 (16:40) -0.9 (-00:0) 7.7 10.28 (20:30) 7.5 (22:50) 0 0 0 0 0
07-03-2020 17.3 (17:00) 0.2 (00:00) 8.7 11.39 (13:10) 7.5 (13:50) -- 0 -- 0 0
06-03-2020 13.4 (16:20) 6.2 (00:00) 9.8 18.61 (10:00) 14.44 (08:50) 0 0 0 0 0
05-03-2020 -- (--) -- (--) -- -- (--) -- (--) -- -- -- 0.4 0
04-03-2020 18.5 (14:20) 11.4 (00:00) 14.9 13.33 (17:40) 9.44 (16:10) 0 0 0 0 0
03-03-2020 15.8 (17:10) 6.6 (00:00) 11.2 16.11 (15:30) 8.61 (11:50) 0 0 0 0 0
02-03-2020 13 (11:40) 7.6 (00:00) 10.3 26.39 (02:10) 16.67 (02:10) 2.5 0.6 1.9 0 0
01-03-2020 15.5 (16:50) 9.1 (00:00) 12.3 18.06 (17:10) 10.56 (13:50) 0.8 0 0 0 0.8
29-02-2020 14.7 (14:10) 4.6 (00:00) 9.6 18.06 (17:40) 10.28 (08:30) 0 0 0 0 0

Gráficas

Temp. máximas Temp. mínimas Temp. medias Precipitaciones Rachas de viento máximas Velocidades máximas media en intervalos de 10 minutos

Datos horarios

Fecha y hora oficial Temperatura (ºC) Velocidad del viento (km/h) Dirección del viento Racha (km/h) Dirección de racha Precipitación (mm) Presión (hPa) Tendencia (hPa) Humedad (%)
2020-03-29 23:00:00 14.6 13 Norte 26 Norte 0 946.8 0.5 36
2020-03-29 22:00:00 15.8 9 Norte 22 Sudoeste 0 946.8 0.5 37
2020-03-29 21:00:00 16.8 16 Sudoeste 26 Sudoeste 0 946.3 -0.3 36
2020-03-29 20:00:00 17.7 14 Sur 28 Sudoeste 0 946.3 -0.7 35
2020-03-29 19:00:00 19.2 7 Sur 26 Sur 0 946.3 -1.4 33
2020-03-29 18:00:00 18.7 15 Sur 22 Sur 0 946.6 -2 35
2020-03-29 17:00:00 19.8 7 Sudeste 24 Sur 0 947 -2.3 32
2020-03-29 16:00:00 19.4 12 Sudoeste 21 Sudoeste 0 947.7 -2.4 33
2020-03-29 15:00:00 18.6 10 Sur 21 Sur 0 948.6 -2.2 36
2020-03-29 14:00:00 17.3 9 Sur 18 Sur 0 949.3 -1.8 41
2020-03-29 13:00:00 14.6 5 Sudeste 13 Sudeste 0 950.1 -1.1 47
2020-03-29 12:00:00 11.6 5 Sur 9 Sur 0 950.8 -0.5 57
2020-03-29 11:00:00 8.4 3 Noroeste 9 Noroeste 0 951.1 0.1 67
2020-03-29 10:00:00 5.6 4 Norte 9 Norte 0 951.2 0.5 74
2020-03-29 09:00:00 1.7 6 Norte -- -- 0 951.3 0.6 90
2020-03-29 08:00:00 1 6 Norte -- -- 0 951 0.2 91
2020-03-29 07:00:00 1.5 5 Norte 8 Norte 0 950.7 -0.4 87
2020-03-29 06:00:00 2.3 5 Noroeste 8 Noroeste 0 950.7 -0.5 84
2020-03-29 05:00:00 2.8 6 Norte 11 Norte 0 950.8 -0.2 82
2020-03-29 03:00:00 4.8 7 Norte 9 Norte 0 951.2 0.4 74
2020-03-29 01:00:00 6.7 6 Sudeste 9 Sudeste 0 951 0.4 67
2020-03-29 00:00:00 8 6 Este 9 Norte 0 951.1 0.8 60
2020-03-28 23:00:00 8.2 7 Norte 11 Norte 0 950.8 1.2 57
2020-03-28 22:00:00 11.1 7 Oeste 13 Oeste 0 950.6 1.5 47
2020-03-28 21:00:00 12 9 Oeste 17 Sudoeste 0 950.3 1.5 44
2020-03-28 20:00:00 12.3 10 Sur 13 Sur 0 949.6 0.8 42
2020-03-28 19:00:00 15.3 7 Sur 13 Sudeste 0 949.1 0.1 37
2020-03-28 18:00:00 16.7 8 Sur 15 Este 0 948.8 -0.6 32
2020-03-28 17:00:00 16.5 7 Oeste 21 Noroeste 0 948.8 -1 33
2020-03-28 16:00:00 16.5 4 Oeste 17 Sudoeste 0 949 -1.2 33
2020-03-28 15:00:00 16 6 Sur 18 Sur 0 949.4 -1.3 35
2020-03-28 14:00:00 15.2 5 Sudeste 15 Sudoeste 0 949.8 -0.9 35
2020-03-28 13:00:00 14 8 Sur 15 Sur 0 950.2 -0.5 33
2020-03-28 12:00:00 12.6 5 Sudeste 13 Sudeste 0 950.7 0.2 36
2020-03-28 11:00:00 10.6 5 Sur 11 Norte 0 950.7 0.6 62
2020-03-28 10:00:00 7.2 5 Norte 8 Norte 0 950.7 1 70
2020-03-28 09:00:00 3.3 5 Noroeste 8 Noroeste 0 950.5 1.3 84
2020-03-28 08:00:00 0 5 Norte 13 Norte 0 950.1 1.3 93
2020-03-28 07:00:00 -0.5 6 Norte 9 Norte 0 949.7 1 93
2020-03-28 06:00:00 -0.2 6 Norte 8 Norte 0 949.2 0.5 93
2020-03-28 05:00:00 0 5 Norte -- -- 0 948.8 0.3 92
2020-03-28 04:00:00 0.6 4 Norte 9 Norte 0 948.7 0.6 90
2020-03-28 03:00:00 1.1 3 Norte 13 Norte 0 948.7 0.7 89
2020-03-28 02:00:00 2.5 10 Norte 13 Norte 0 948.5 0.7 88
2020-03-28 01:00:00 2.6 6 Norte 9 Norte 0 948.1 0.8 89
2020-03-28 00:00:00 3 4 Norte 8 Este 0 948 1.4 87
2020-03-27 23:00:00 4.3 4 Sudeste 8 Sudeste 0 947.8 2.2 85
2020-03-27 22:00:00 4.9 3 Sudeste 9 Sudeste 0 947.3 2.3 80
2020-03-27 21:00:00 5.4 3 Sudeste 9 Este 0 946.6 2 75
2020-03-27 20:00:00 7.5 13 Sudeste 37 Sudeste 0 945.6 1.2 67
2020-03-27 19:00:00 10.9 10 Sur 13 Sudoeste 0 945 0.4 52
2020-03-27 18:00:00 11.8 6 Sudeste 13 Sudoeste 0 944.6 -0.4 48
2020-03-27 17:00:00 10.5 7 Sudeste 17 Sur 0 944.4 -1 53
2020-03-27 16:00:00 11.8 9 Sur 21 Sur 0 944.6 -0.8 54
2020-03-27 15:00:00 9.5 5 Este 18 Este 0 945 -0.5 58
2020-03-27 14:00:00 8.5 5 Este 21 Sudeste 0 945.4 0 64
2020-03-27 13:00:00 7.8 14 Sudeste 21 Sudeste 0 945.4 0.1 67
2020-03-27 12:00:00 7.2 4 Sudeste 17 Este 0 945.5 0.7 73
2020-03-27 11:00:00 6.6 9 Nordeste 17 Nordeste 0 945.4 1.1 79
2020-03-27 10:00:00 2.9 8 Nordeste 18 Nordeste 0.8 945.3 1.5 91
2020-03-27 09:00:00 2.7 10 Nordeste 24 Nordeste 0.4 944.8 1.5 90
2020-03-27 08:00:00 3.2 12 Nordeste 24 Nordeste 0 944.3 1.4 83
2020-03-27 07:00:00 3.2 12 Nordeste 30 Norte 0 943.8 1 79
2020-03-27 06:00:00 4.5 15 Nordeste 30 Nordeste 0 943.3 0.5 64
2020-03-27 05:00:00 5.1 14 Nordeste 28 Nordeste 0 942.9 0 58
2020-03-27 04:00:00 5.8 13 Norte 21 Norte 0 942.8 0.3 54
2020-03-27 03:00:00 6.3 13 Nordeste 30 Este 0 942.8 0.4 51
2020-03-27 02:00:00 6.7 11 Nordeste 26 Este 0 942.9 0.3 49
2020-03-27 01:00:00 7.2 16 Nordeste 30 Este 0 942.5 0.5 46
2020-03-27 00:00:00 7.3 11 Nordeste 26 Nordeste 0 942.4 0.3 49
2020-03-26 23:00:00 6.9 4 Nordeste 18 Nordeste 0 942.6 0.9 51
2020-03-26 22:00:00 8.6 12 Norte 24 Norte 0 942 1 46
2020-03-26 21:00:00 9 14 Norte 22 Norte 0 942.1 1.5 43
2020-03-26 20:00:00 10.6 14 Norte 35 Norte 0 941.7 1.3 39
2020-03-26 19:00:00 12.9 22 Norte 39 Norte 0 941 0.6 34
2020-03-26 18:00:00 13.6 23 Norte 41 Norte 0 940.6 0 32
2020-03-26 17:00:00 15.5 25 Norte 41 Norte 0 940.4 -0.6 30
2020-03-26 16:00:00 16 28 Norte 41 Norte 0 940.4 -1.1 29
2020-03-26 15:00:00 16.1 21 Norte 33 Norte 0 940.6 -1.5 29
2020-03-26 14:00:00 15.4 6 Sur 26 Norte 0 941 -1.7 30
2020-03-26 13:00:00 14.1 8 Noroeste 22 Sur 0 941.5 -1.8 30
2020-03-26 12:00:00 13.1 5 Sudoeste 15 Sudoeste 0 942.1 -1 27
2020-03-26 11:00:00 11 4 Sudoeste 13 Sudoeste 0 942.7 -0.7 33
2020-03-26 10:00:00 8.7 5 Sur 17 Sudeste 0 943.3 0.3 41
2020-03-26 09:00:00 6.7 7 Este 13 Este 0 943.1 0.4 46
2020-03-26 08:00:00 3.4 6 Sudeste 17 Sudeste 0 943.4 0.9 48
2020-03-26 07:00:00 3.4 8 Este 13 Este 0 943 0.3 41
2020-03-26 06:00:00 4 9 Noroeste 18 Norte 0 942.7 -0.7 43
2020-03-26 05:00:00 3.9 9 Sudoeste 11 Sudoeste 0 942.5 -1.5 79
2020-03-26 04:00:00 3.7 8 Sudeste 9 Sudeste 0 942.7 -1.4 79
2020-03-26 03:00:00 3.8 6 Nordeste 9 Nordeste 0 943.4 -1 78
2020-03-26 02:00:00 5 6 Noroeste 11 Nordeste 0 944 -0.2 73
2020-03-26 01:00:00 6.6 2 Norte 13 Nordeste 0 944.1 0 66
2020-03-26 00:00:00 7.5 6 Norte 13 Nordeste 0 944.4 0.2 62
2020-03-25 23:00:00 8.2 8 Noroeste 13 Noroeste 0 944.2 0.2 62
2020-03-25 22:00:00 9.6 8 Norte 11 Norte 0 944.1 0.3 52
2020-03-25 21:00:00 11.1 5 Norte 17 Norte 0 944.2 0.4 49
2020-03-25 20:00:00 14 12 Norte 18 Noroeste 0 944 -0.1 39
2020-03-25 19:00:00 16.5 7 Nordeste 26 Sudoeste 0 943.8 -0.9 46
2020-03-25 18:00:00 17.1 15 Oeste 28 Oeste 0 943.8 -1.9 46
2020-03-25 17:00:00 17.2 11 Sudoeste 26 Sur 0 944.1 -2.6 45
2020-03-25 16:00:00 16.6 15 Sur 30 Sudoeste 0 944.7 -2.7 48
2020-03-25 15:00:00 16.2 13 Sudoeste 26 Sur 0 945.7 -2.3 50
2020-03-25 14:00:00 15.6 13 Sur 24 Sudoeste 0 946.7 -1.5 55
2020-03-25 13:00:00 14.1 13 Sur 22 Sudoeste 0 947.4 -1.2 57
2020-03-25 12:00:00 13.1 9 Sur 22 Sur 0 948 -0.5 58
2020-03-25 11:00:00 11.6 14 Sur 24 Sudoeste 0 948.2 -0.4 62
2020-03-25 10:00:00 10.9 12 Sur 21 Sur 0 948.6 0.3 64
2020-03-25 09:00:00 9.6 10 Sur 15 Sur 0 948.5 0 71
2020-03-25 08:00:00 7.2 10 Sur 15 Sudoeste 0 948.6 -0.1 79
2020-03-25 07:00:00 7.6 11 Sur 21 Sudoeste 0 948.3 -0.6 79
2020-03-25 06:00:00 8.2 9 Sudoeste 18 Sudoeste 0 948.5 -0.7 78
2020-03-25 05:00:00 8.4 8 Sur 13 Sudoeste 0 948.7 -0.5 76
2020-03-25 04:00:00 8.8 10 Sur 21 Sur 0 948.9 -0.1 74
2020-03-25 03:00:00 9.1 15 Sur 22 Sur 0 949.2 0.3 70
2020-03-25 02:00:00 9.6 15 Sur 24 Sudoeste 0 949.2 0.3 73
2020-03-25 01:00:00 10.4 14 Sur 21 Sudoeste 0 949 0.4 71
2020-03-25 00:00:00 11.1 10 Sudoeste 21 Sudoeste 0 948.9 0.5 69
2020-03-24 23:00:00 11.4 11 Sudoeste 17 Sudoeste 0 948.9 1.2 71
2020-03-24 22:00:00 11.5 0 Calma 13 Nordeste 0 948.6 1.6 66
2020-03-24 21:00:00 11.7 2 Nordeste 11 Sur 0 948.4 1.9 71
2020-03-24 20:00:00 12.5 10 Sudeste 21 Sur 0 947.7 1.4 69
2020-03-24 19:00:00 13.7 13 Sur 26 Sur 0 947 0.6 65
2020-03-24 18:00:00 14.8 3 Sudeste 15 Sudoeste 0 946.5 -0.3 57
2020-03-24 17:00:00 16 8 Nordeste 15 Norte 0 946.3 -1.2 48
2020-03-24 16:00:00 16 12 Nordeste 24 Nordeste 0 946.4 -1.7 50
2020-03-24 15:00:00 15.7 11 Este 30 Nordeste 0 946.8 -1.5 50
2020-03-24 14:00:00 16.1 15 Norte 30 Norte 0 947.5 -1.2 51
2020-03-24 13:00:00 16.5 14 Nordeste 30 Nordeste 0 948.1 -0.6 50
2020-03-24 12:00:00 14.8 15 Nordeste 33 Nordeste 0 948.3 -0.2 56
2020-03-24 11:00:00 12.3 15 Nordeste 33 Nordeste 0 948.7 0.3 67
2020-03-24 10:00:00 11.1 15 Nordeste 32 Nordeste 0 948.7 0.6 71
2020-03-24 09:00:00 9.7 14 Nordeste 28 Nordeste 0 948.5 0.6 77
2020-03-24 08:00:00 8.9 12 Norte 26 Nordeste 0.1 948.4 0.6 84
2020-03-24 07:00:00 8.9 13 Nordeste 22 Nordeste 0 948.1 -0.1 85
2020-03-24 06:00:00 9.4 8 Nordeste 17 Este 0 947.9 -0.4 78
2020-03-24 05:00:00 8.8 11 Norte 17 Norte 0 947.8 -0.5 82
2020-03-24 04:00:00 9 13 Noroeste 18 Norte 0 948.2 -0.3 82
2020-03-24 03:00:00 9.1 13 Norte 17 Norte 0 948.3 -0.4 82
2020-03-24 02:00:00 8.9 10 Norte 15 Norte 0 948.3 -0.2 83
2020-03-24 01:00:00 9.1 4 Norte 9 Nordeste 0 948.5 0.1 84
2020-03-24 00:00:00 8.9 5 Norte 15 Norte 0 948.7 0.6 84
2020-03-23 23:00:00 9.7 12 Noroeste 13 Noroeste 0 948.5 1.1 83
2020-03-23 22:00:00 10.2 8 Norte 11 Norte 0 948.4 1.3 80
2020-03-23 21:00:00 10.5 2 Noroeste 8 Nordeste 0 948.1 1.7 79
2020-03-23 20:00:00 11.1 4 Nordeste 11 Este 0 947.4 1 72
2020-03-23 19:00:00 13.5 7 Este 21 Este 0 947.1 0.9 59
2020-03-23 18:00:00 14.3 11 Este 22 Este 0 946.4 -0.1 57
2020-03-23 17:00:00 12.2 15 Sudeste 35 Sudeste 0 946.4 -0.9 75
2020-03-23 16:00:00 15.1 10 Nordeste 21 Nordeste 0 946.2 -1.8 56
2020-03-23 15:00:00 14.7 10 Nordeste 28 Nordeste 0 946.5 -1.9 59
2020-03-23 14:00:00 14.3 15 Nordeste 26 Nordeste 0 947.3 -1.2 68
2020-03-23 13:00:00 12.7 9 Nordeste 21 Norte 0 948 -0.1 78
2020-03-23 12:00:00 10.8 6 Nordeste 11 Este 0.4 948.4 1 89
2020-03-23 11:00:00 9.6 5 Nordeste 13 Nordeste 1.1 948.5 1.4 93
2020-03-23 10:00:00 9.4 7 Norte 13 Norte 0 948.1 1.1 93
2020-03-23 09:00:00 8.7 8 Norte -- -- 0 947.4 0.8 95
2020-03-23 08:00:00 8.2 3 Noroeste 5 Noroeste 1 947.1 0.9 95
2020-03-23 07:00:00 8.2 2 Este 4 Este 0 947 0.9 94
2020-03-23 06:00:00 8.2 2 Este 5 Nordeste 0.1 946.6 0.2 94
2020-03-23 05:00:00 8.2 0 Calma 8 Nordeste 0.5 946.2 -0.3 94
2020-03-23 04:00:00 8.2 3 Norte 8 Nordeste 1.5 946.1 -0.5 94
2020-03-23 03:00:00 8.6 5 Noroeste 9 Norte 1.9 946.4 -0.2 94
2020-03-23 02:00:00 8.6 4 Norte 8 Norte 0.7 946.5 0 94
2020-03-23 01:00:00 8.6 5 Norte 13 Norte 0.5 946.6 0.6 94
2020-03-23 00:00:00 8.6 10 Norte 13 Norte 0.5 946.6 0.9 94
2020-03-22 23:00:00 8.7 0 Calma 8 Nordeste 1.2 946.5 2.1 93
2020-03-22 22:00:00 8.9 2 Sudeste 24 Sudeste 3.1 946 2 91
2020-03-22 21:00:00 9.8 6 Este 9 Este 0.2 945.7 2.5 82
2020-03-22 20:00:00 10 0 Calma 13 Oeste 0 944.4 1.4 79
2020-03-22 19:00:00 10.8 9 Sudoeste 26 Sur 0 944 0.9 75
2020-03-22 18:00:00 12.1 7 Nordeste 21 Norte 0 943.2 -0.3 74
2020-03-22 17:00:00 12.4 12 Norte 22 Norte 0 943 -1.2 69
2020-03-22 16:00:00 12.1 19 Norte 26 Norte 0 943.1 -1.2 69
2020-03-22 15:00:00 11.8 17 Norte 24 Norte 0 943.5 -1.1 74
2020-03-22 14:00:00 11 13 Norte 24 Nordeste 0 944.2 -0.5 79
2020-03-22 13:00:00 12 12 Nordeste 26 Norte 0 944.3 -0.3 70
2020-03-22 12:00:00 12 12 Nordeste 22 Nordeste 0 944.6 0.4 71
2020-03-22 11:00:00 11.5 10 Nordeste 18 Nordeste 0 944.7 0.7 72
2020-03-22 10:00:00 10.2 5 Nordeste 9 Nordeste 0 944.6 0.9 80
2020-03-22 09:00:00 7.9 0 Calma 5 Nordeste 0 944.2 0.6 95
2020-03-22 08:00:00 6.1 0 Calma 5 Norte 0 944 0.5 94
2020-03-22 07:00:00 6.3 4 Norte 9 Norte 0 943.7 0 93
2020-03-22 06:00:00 7.4 2 Norte 5 Norte 0 943.6 -0.3 94
2020-03-22 05:00:00 7.3 5 Norte 8 Norte 0 943.5 -0.9 94
2020-03-22 04:00:00 7.3 4 Norte 8 Norte 0 943.7 -0.9 94
2020-03-22 03:00:00 7.4 3 Nordeste 5 Nordeste 0 943.9 -0.9 94
2020-03-22 02:00:00 7.4 4 Nordeste 8 Nordeste 0 944.4 -0.2 93
2020-03-22 01:00:00 7.5 3 Sudeste 9 Sur 0.1 944.6 -0.1 91
2020-03-22 00:00:00 7.8 6 Sudeste 11 Este 0 944.8 0.3 92
2020-03-21 23:00:00 7.9 4 Nordeste 13 Este 0.3 944.6 0.5 91
2020-03-21 22:00:00 8.4 5 Este 9 Este 0.4 944.7 1 92
2020-03-21 21:00:00 8.6 3 Nordeste 5 Nordeste 0 944.5 0.8 91
2020-03-21 20:00:00 8.7 2 Nordeste 5 Este 0 944.1 0.5 90
2020-03-21 19:00:00 9.2 -- -- -- -- 0 943.7 -0.2 88
2020-03-21 18:00:00 9.5 6 Sudeste 9 Sur 0 943.7 -0.4 84
2020-03-21 17:00:00 9.8 4 Sur 17 Sudoeste 0 943.6 -0.8 78
2020-03-21 16:00:00 9.5 6 Sudoeste 21 Sudoeste 0 943.9 -0.7 81
2020-03-21 15:00:00 9.4 14 Sudoeste 30 Sudoeste 0 944.1 -0.9 85
2020-03-21 14:00:00 9.6 15 Sudoeste 24 Sudoeste 0.2 944.4 -0.7 89
2020-03-21 13:00:00 10.2 3 Sudeste 8 Sudeste 0 944.6 -0.6 90
2020-03-21 12:00:00 9.7 5 Este 11 Sudeste 0.6 945 0.1 89
2020-03-21 11:00:00 10 9 Sudeste 15 Este 0 945.1 0.3 79
2020-03-21 10:00:00 10 10 Este 18 Este 0 945.2 0.5 74
2020-03-21 09:00:00 9.6 6 Este 13 Este 0 944.9 -0.2 74
2020-03-21 08:00:00 9.4 3 Nordeste 11 Norte 0 944.8 -0.6 76
2020-03-21 07:00:00 9.4 8 Nordeste 15 Nordeste 0 944.7 -1.2 76
2020-03-21 06:00:00 8.9 5 Norte 9 Norte 0 945.1 -1.7 77
2020-03-21 05:00:00 8.7 5 Nordeste 9 Norte 0 945.4 -1.8 75
2020-03-21 04:00:00 8.8 5 Nordeste 13 Sudeste 0 945.9 -1.4 74
2020-03-21 03:00:00 8.9 6 Este 17 Sudeste 0 946.8 -0.5 75
2020-03-21 02:00:00 8.9 8 Sudeste 13 Este 0 947.2 0.2 80
2020-03-21 01:00:00 8 4 Este 8 Este 0 947.3 0.1 86
2020-03-21 00:00:00 8.2 4 Sudeste 8 Sudeste 0 947.3 -0.1 84
2020-03-20 23:00:00 8.1 -- -- -- -- 0 947 -0.4 83
2020-03-20 22:00:00 10.1 5 Este 8 Este 0 947.2 -0.2 75
2020-03-20 21:00:00 11.9 4 Este 13 Sudeste 0 947.4 0.1 69
2020-03-20 20:00:00 12.4 8 Este 15 Este 0 947.4 -0.2 66
2020-03-20 19:00:00 12.7 8 Este 22 Sudeste 0 947.4 -0.5 63
2020-03-20 18:00:00 13.1 12 Este 21 Sudeste 0 947.3 -0.8 61
2020-03-20 17:00:00 13.2 9 Sudeste 21 Sudeste 0 947.6 -0.9 61
2020-03-20 16:00:00 13 10 Sudeste 24 Sudeste 0 947.9 -0.9 62
2020-03-20 15:00:00 13.3 15 Sudeste 24 Sudeste 0 948.1 -1.3 61
2020-03-20 14:00:00 13.1 19 Sudeste 30 Sudeste 0 948.5 -1.3 63
2020-03-20 13:00:00 13 12 Sudeste 21 Sudeste 0 948.8 -0.9 64
2020-03-20 12:00:00 11.9 9 Sudeste 15 Sudeste 0 949.4 0 68
2020-03-20 11:00:00 11.6 10 Sudeste 21 Sudeste 0 949.8 0.7 68
2020-03-20 10:00:00 11.4 10 Sudeste 18 Sudeste 0 949.7 0.8 66
2020-03-20 09:00:00 10.8 10 Sudeste 17 Sudeste 0 949.4 0.7 69
2020-03-20 08:00:00 10.3 9 Sudeste 15 Sudeste 0 949.1 0.2 71
2020-03-20 07:00:00 10.2 3 Este 11 Sudeste 0 948.9 -0.2 72
2020-03-20 06:00:00 10.5 9 Sudeste 15 Sudeste 0 948.7 -0.9 70
2020-03-20 05:00:00 10.6 8 Este 21 Sudeste 0 948.9 -0.9 69
2020-03-20 04:00:00 11 11 Este 17 Sudeste 0 949.1 -0.8 69
2020-03-20 03:00:00 11.4 9 Este 15 Este 0 949.6 -0.6 69
2020-03-20 02:00:00 11.4 9 Sudeste 15 Este 0 949.8 -0.6 70
2020-03-20 01:00:00 10.8 3 Este 8 Sudeste 0 949.9 -0.5 73
2020-03-20 00:00:00 10.4 5 Este 11 Nordeste 0 950.2 0 74
2020-03-19 23:00:00 10.9 4 Este 13 Sudeste 0 950.4 0.6 71
2020-03-19 22:00:00 11.8 9 Sudeste 21 Sur 0 950.4 1 68
2020-03-19 21:00:00 12.7 15 Sudeste 26 Sur 0 950.2 1 65
2020-03-19 20:00:00 13.6 20 Sudeste 28 Sur 0 949.8 0.2 62
2020-03-19 19:00:00 14.9 16 Sur 26 Sur 0 949.4 -0.8 58
2020-03-19 18:00:00 16.4 12 Sudeste 18 Sudeste 0 949.2 -1.7 51
2020-03-19 17:00:00 17.2 12 Sur 21 Sur 0 949.6 -2.3 48
2020-03-19 16:00:00 17.4 10 Sudeste 22 Sudeste 0 950.2 -2.5 48
2020-03-19 15:00:00 17.3 11 Sur 24 Sur 0 950.9 -2.6 49
2020-03-19 14:00:00 17 10 Sur 21 Sudeste 0 951.9 -2.1 49
2020-03-19 13:00:00 16.1 14 Sudeste 24 Sudeste 0 952.7 -1.5 50
2020-03-19 12:00:00 14.9 9 Sudeste 21 Sudeste 0 953.5 -0.6 53
2020-03-19 11:00:00 14 15 Sudeste 24 Sudeste 0 954 0.2 53
2020-03-19 10:00:00 11.3 10 Sudeste 15 Sudeste 0 954.2 0.3 63
2020-03-19 09:00:00 10.3 13 Sudeste 15 Sudeste 0 954.1 0.4 70
2020-03-19 08:00:00 9.9 4 Sudeste 8 Sudeste 0 953.8 0.1 77
2020-03-19 07:00:00 10 6 Sur 9 Sur 0 953.9 0 76
2020-03-19 06:00:00 9.7 7 Sudoeste 9 Sudoeste 0 953.7 -0.6 80
2020-03-19 05:00:00 9.3 4 Sudeste 8 Sur 0 953.7 -1.2 86
2020-03-19 04:00:00 9.2 4 Sur 8 Sur 0 953.9 -1.2 84
2020-03-19 03:00:00 9.7 3 Nordeste 8 Sudoeste 0 954.3 -1.1 83
2020-03-19 02:00:00 10.8 9 Sur 11 Sur 0 954.9 -0.5 79
2020-03-19 01:00:00 11.2 5 Sudeste 8 Sudeste 0 955.1 -0.3 86
2020-03-19 00:00:00 11.3 0 Calma 9 Norte 0 955.4 0.2 85
2020-03-18 23:00:00 11.5 6 Norte 9 Norte 0 955.4 0.4 82
2020-03-18 22:00:00 12.6 5 Sudeste 8 Sudeste 0 955.4 0.7 76
2020-03-18 21:00:00 12.8 4 Sudeste 8 Sur 0 955.2 0.4 73
2020-03-18 20:00:00 13.6 5 Sur 8 Sur 0 955 0.1 69
2020-03-18 19:00:00 15.6 5 Sur 11 Oeste 0 954.7 -0.6 63
2020-03-18 18:00:00 16.5 0 Calma 8 Sur 0 954.8 -1 57
2020-03-18 17:00:00 16.9 4 Sur 9 Sudeste 0 954.9 -1.5 58
2020-03-18 16:00:00 16.3 7 Sudeste 15 Sudeste 0 955.3 -2.1 58
2020-03-18 15:00:00 16.9 3 Sur 11 Sudoeste 0 955.8 -2.1 55
2020-03-18 14:00:00 16.1 4 Sudoeste 11 Oeste 0 956.4 -1.8 59
2020-03-18 13:00:00 15 5 Sur 13 Sudoeste 0 957.4 -1 60
2020-03-18 12:00:00 14.1 3 Norte 9 Nordeste 0 957.9 -0.3 66
2020-03-18 11:00:00 12.6 4 Norte 9 Este 0 958.2 0.3 72
2020-03-18 10:00:00 11 0 Calma 8 Sur 0 958.4 0.3 79
2020-03-18 09:00:00 9.5 3 Norte 8 Norte 0 958.2 0.1 87
2020-03-18 08:00:00 8.5 6 Noroeste 11 Noroeste 0 957.9 0.1 88
2020-03-18 07:00:00 8.7 4 Norte 8 Norte 0 958.1 0.8 88
2020-03-18 06:00:00 8.4 4 Norte 8 Norte 0 958.1 0.6 88
2020-03-18 05:00:00 9 0 Calma 13 Noroeste 0 957.8 -0.1 85
2020-03-18 04:00:00 10.2 7 Norte 18 Norte 0 957.3 -1.1 81
2020-03-18 03:00:00 10.3 13 Norte 21 Noroeste 0 957.5 -1.1 82
2020-03-18 02:00:00 9.7 8 Norte 21 Norte 0 957.9 -0.8 84
2020-03-18 01:00:00 10.4 15 Noroeste 22 Noroeste 0 958.4 0 81
2020-03-18 00:00:00 10.9 8 Nordeste 18 Nordeste 0 958.6 0.7 79
2020-03-17 23:00:00 11.3 9 Norte 15 Norte 0 958.7 1.5 82
2020-03-17 22:00:00 12.5 13 Norte 17 Norte 0 958.4 2.1 79
2020-03-17 21:00:00 13.7 12 Norte 17 Norte 0 957.9 2.2 74
2020-03-17 20:00:00 14.2 8 Nordeste 24 Nordeste 0 957.2 1.7 69
2020-03-17 19:00:00 15.4 9 Nordeste 18 Este 0 956.3 1.1 62
2020-03-17 18:00:00 16.3 9 Este 28 Este 0 955.7 0.5 57
2020-03-17 17:00:00 17.4 14 Este 39 Este 0 955.5 -0.2 54
2020-03-17 16:00:00 17.5 22 Este 39 Sudeste 0 955.2 -0.7 53
2020-03-17 15:00:00 16.5 15 Este 28 Este 0 955.2 -0.8 57
2020-03-17 14:00:00 15 10 Este 28 Sudeste 0 955.7 0 62
2020-03-17 13:00:00 13.6 9 Nordeste 22 Nordeste 0 955.9 0.4 73
2020-03-17 12:00:00 12.5 8 Este 18 Este 0 956 1.1 77
2020-03-17 11:00:00 9.4 7 Norte 15 Norte 0 955.7 1.3 90
2020-03-17 10:00:00 7.8 6 Norte 15 Norte 0 955.5 1.5 94
2020-03-17 09:00:00 6.8 10 Noroeste 13 Noroeste 0 954.9 2 94
2020-03-17 08:00:00 6.2 6 Norte 17 Norte 0.3 954.4 2.4 95
2020-03-17 07:00:00 6.1 8 Norte 24 Noroeste 0.3 954 2.1 94
2020-03-17 06:00:00 6 13 Noroeste 22 Norte 0 952.9 1.1 93
2020-03-17 05:00:00 5.8 14 Noroeste 22 Norte 0.1 952 0.5 92
2020-03-17 04:00:00 5.8 9 Norte 13 Norte 0 951.9 0.4 88
2020-03-17 03:00:00 5.7 9 Norte 15 Norte 0 951.8 1.1 85
2020-03-17 02:00:00 5.6 11 Nordeste 17 Noroeste 0 951.5 1.3 84
2020-03-17 01:00:00 5.5 9 Nordeste 18 Nordeste 0 951.5 2.2 84
2020-03-17 00:00:00 6 4 Este 17 Este 0 950.7 1.8 87
2020-03-16 23:00:00 5.2 6 Noroeste 9 Norte 0 950.2 2.2 90
2020-03-16 22:00:00 5.1 4 Norte 17 Norte 0 949.3 2.5 87
2020-03-16 21:00:00 4.7 12 Norte 21 Norte 0 948.9 2.5 88
2020-03-16 20:00:00 5 9 Norte 30 Este 0.3 948 2.3 88
2020-03-16 19:00:00 6.4 16 Nordeste 30 Nordeste 0 946.8 1.6 80
2020-03-16 18:00:00 6.5 10 Este 32 Este 0 946.4 1.6 80
2020-03-16 17:00:00 6.7 13 Nordeste 32 Nordeste 1.3 945.7 0.9 86
2020-03-16 16:00:00 8.3 10 Nordeste 17 Nordeste 0.3 945.2 0.4 74
2020-03-16 15:00:00 8.4 11 Nordeste 21 Nordeste 0 944.8 0.1 66
2020-03-16 14:00:00 8.9 7 Nordeste 15 Nordeste 0 944.8 0.4 66
2020-03-16 13:00:00 7.5 8 Nordeste 17 Nordeste 0 944.8 1.1 73
2020-03-16 12:00:00 7.2 8 Nordeste 13 Nordeste 0 944.7 2 73
2020-03-16 11:00:00 6.9 6 Sudeste 18 Sudeste 0 944.4 2.8 71
2020-03-16 10:00:00 5.6 13 Sudeste 22 Sudeste 0 943.7 2.5 77
2020-03-16 09:00:00 4.6 18 Sur 24 Sur 0 942.7 1.6 79
2020-03-16 08:00:00 5.2 13 Sur 18 Sur 0 941.6 0.7 78
2020-03-16 07:00:00 5.7 12 Sur 22 Sur 0 941.2 0.5 78
2020-03-16 06:00:00 6.6 12 Sur 21 Sur 0 941.1 -0.5 81
2020-03-16 05:00:00 7.6 13 Sur 21 Sur 0 940.9 -1.1 86
2020-03-16 04:00:00 7.9 12 Sudoeste 21 Sur 1.2 940.7 -1.4 81
2020-03-16 03:00:00 8.6 16 Sur 30 Sur 1.7 941.6 -1.5 86
2020-03-16 02:00:00 9.8 15 Sur 28 Sur 0 942 -1 83
2020-03-16 01:00:00 10.1 18 Sur 37 Sudoeste 0.5 942.1 -1.4 82
2020-03-16 00:00:00 11.4 30 Sur 41 Sur 2.1 943.1 -0.1 84
2020-03-15 23:00:00 12.1 13 Sur 37 Sur 2.5 943 0.4 80
2020-03-15 22:00:00 12.9 21 Sur 32 Sur 0 943.5 1.4 77
2020-03-15 21:00:00 13.2 22 Sur 33 Sur 0.5 943.2 0.7 77
2020-03-15 20:00:00 13.5 17 Oeste 48 Oeste 1.3 942.6 -0.6 71
2020-03-15 19:00:00 17.8 12 Sur 28 Sur 0 942.1 -1.5 55
2020-03-15 18:00:00 18.7 20 Sur 33 Sudoeste 0 942.5 -1.6 50
2020-03-15 17:00:00 19.6 19 Sudoeste 35 Sudoeste 0 943.2 -2.1 45
2020-03-15 16:00:00 19.5 24 Sur 35 Sudoeste 0 943.6 -3.1 47
2020-03-15 15:00:00 20.4 16 Sudoeste 30 Sur 0 944.1 -3.9 45
2020-03-15 14:00:00 20.4 13 Sur 26 Sur 0 945.3 -3.3 48
2020-03-15 13:00:00 18.6 9 Sur 17 Sur 0 946.7 -2.2 52
2020-03-15 12:00:00 16.4 6 Sur 13 Sur 0 948 -0.9 54
2020-03-15 11:00:00 13.2 5 Oeste 13 Oeste 0 948.6 -0.1 56
2020-03-15 10:00:00 10 6 Oeste 11 Oeste 0 948.9 0.3 61
2020-03-15 09:00:00 7.5 5 Norte 9 Norte 0 948.9 0.4 72
2020-03-15 08:00:00 5.3 6 Norte 9 Norte 0 948.7 0.1 79
2020-03-15 07:00:00 5.7 8 Norte 11 Norte 0 948.6 -0.4 77
2020-03-15 06:00:00 5.9 8 Norte 11 Norte 0 948.5 -1.1 76
2020-03-15 05:00:00 6.5 7 Norte 9 Norte 0 948.6 -1.1 76
2020-03-15 04:00:00 7.1 5 Noroeste -- -- 0 949 -0.9 72
2020-03-15 03:00:00 7.8 5 Nordeste 5 Norte 0 949.6 -0.5 72
2020-03-15 02:00:00 8.9 4 Norte 8 Norte 0 949.7 -0.3 67
2020-03-15 01:00:00 10.1 5 Norte 8 Norte 0 949.9 0.2 65
2020-03-15 00:00:00 11.3 5 Noroeste 13 Norte 0 950.1 0.4 63
2020-03-14 23:00:00 12.6 6 Norte 13 Norte 0 950 0.6 59
2020-03-14 22:00:00 13.9 8 Norte 9 Norte 0 949.7 0.6 57
2020-03-14 21:00:00 17.9 6 Sudoeste 15 Sudoeste 0 949.7 0.7 47
2020-03-14 20:00:00 18.4 7 Sur 17 Sudoeste 0 949.4 0.3 42
2020-03-14 19:00:00 20.9 9 Sur 13 Sur 0 949.1 -0.4 37
2020-03-14 18:00:00 22.8 3 Nordeste 13 Sur 0 949 -1.1 32
2020-03-14 17:00:00 23.2 4 Sudeste 15 Noroeste 0 949.1 -2 34
2020-03-14 16:00:00 22.5 5 Noroeste 17 Oeste 0 949.5 -2.3 37
2020-03-14 15:00:00 22.1 6 Noroeste 13 Norte 0 950.1 -2.3 39
2020-03-14 14:00:00 21.3 7 Nordeste 18 Nordeste 0 951.1 -1.8 41
2020-03-14 13:00:00 20.1 4 Sudoeste 17 Norte 0 951.8 -1.1 45
2020-03-14 12:00:00 18.2 3 Noroeste 11 Sudeste 0 952.4 -0.2 54
2020-03-14 11:00:00 15 5 Norte 11 Norte 0 952.9 0.7 62
2020-03-14 10:00:00 12.3 3 Norte 9 Norte 0 952.9 1.2 69
2020-03-14 09:00:00 9.6 0 Calma 9 Norte 0 952.6 1.5 80
2020-03-14 08:00:00 7.1 5 Norte 9 Norte 0 952.2 1.3 89
2020-03-14 07:00:00 7.3 7 Norte 9 Norte 0 951.7 1.2 86
2020-03-14 06:00:00 8.3 4 Sudeste 9 Noroeste 0 951.1 0.1 81
2020-03-14 05:00:00 9.7 5 Norte 17 Norte 0 950.9 0 77
2020-03-14 04:00:00 9.9 4 Sudeste 8 Sudeste 0 950.5 -0.1 75
2020-03-14 03:00:00 11.1 4 Nordeste 15 Este 0 951 0.7 71
2020-03-14 02:00:00 12 5 Norte 13 Norte 0 950.9 1 68
2020-03-14 01:00:00 12.9 10 Nordeste 17 Nordeste 0 950.6 1.1 65
2020-03-14 00:00:00 14.2 4 Norte 21 Nordeste 0 950.3 1.5 61
2020-03-13 23:00:00 15 2 Norte 11 Norte 0 949.9 1.7 58
2020-03-13 22:00:00 16.3 4 Norte 17 Norte 0 949.5 1.8 53
2020-03-13 21:00:00 17.8 6 Oeste 17 Sudoeste 0 948.8 1.5 45
2020-03-13 20:00:00 19.5 11 Oeste 18 Oeste 0 948.2 0.9 39
2020-03-13 19:00:00 21 12 Oeste 24 Sudoeste 0 947.7 0.1 37
2020-03-13 18:00:00 23 12 Sur 22 Sudeste 0 947.3 -0.6 36
2020-03-13 17:00:00 23.6 12 Sur 22 Sur 0 947.3 -1.5 34
2020-03-13 16:00:00 23.9 9 Sur 21 Sur 0 947.6 -1.8 33
2020-03-13 15:00:00 23.5 10 Sur 24 Sur 0 947.9 -2 38
2020-03-13 14:00:00 22.6 6 Sur 17 Sur 0 948.8 -1.3 42
2020-03-13 13:00:00 20.9 4 Sur 17 Sudeste 0 949.4 -0.9 47
2020-03-13 12:00:00 19.5 6 Nordeste 15 Nordeste 0 949.9 -0.2 51
2020-03-13 11:00:00 17.5 7 Este 15 Norte 0 950.1 0.3 57
2020-03-13 10:00:00 14.6 6 Norte 11 Norte 0 950.3 0.9 68
2020-03-13 09:00:00 11.8 3 Norte 8 Norte 0 950.1 1 78
2020-03-13 08:00:00 7.4 4 Norte 8 Norte 0 949.8 0.9 88
2020-03-13 07:00:00 7.8 0 Calma 5 Norte 0 949.4 0.4 84
2020-03-13 06:00:00 8.5 6 Norte 9 Norte 0 949.1 -0.1 84
2020-03-13 05:00:00 9 7 Norte 9 Norte 0 948.9 -0.4 81
2020-03-13 04:00:00 10.2 5 Sudeste 9 Sudeste 0 949 -0.5 77
2020-03-13 03:00:00 9.8 6 Norte 9 Norte 0 949.2 -0.3 81
2020-03-13 02:00:00 11.3 -- -- -- -- 0 949.3 -0.1 74
2020-03-13 01:00:00 12.6 0 Calma 9 Norte 0 949.5 0.2 66
2020-03-13 00:00:00 14.3 4 Norte 11 Sudeste 0 949.5 0.3 61
2020-03-12 23:00:00 15.1 2 Nordeste 5 Este 0 949.4 0.4 57
2020-03-12 22:00:00 17.2 5 Sudeste 13 Sudoeste 0 949.3 0.5 48
2020-03-12 21:00:00 18.2 2 Sudoeste 8 Sudoeste 0 949.2 0.5 43
2020-03-12 20:00:00 19.2 0 Calma 15 Oeste 0 949 0 40
2020-03-12 19:00:00 22.1 7 Oeste 15 Sudoeste 0 948.8 -0.5 36
2020-03-12 18:00:00 24.7 7 Oeste 21 Sudoeste 0 948.7 -1.4 30
2020-03-12 17:00:00 24.7 6 Oeste 15 Oeste 0 949 -2.3 30
2020-03-12 16:00:00 24.9 10 Oeste 15 Oeste 0 949.3 -3 29
2020-03-12 15:00:00 24.8 4 Sur 15 Sudoeste 0 950.1 -2.8 34
2020-03-12 14:00:00 22.3 5 Sudoeste 11 Sudoeste 0 951.3 -2 40
2020-03-12 13:00:00 20.9 5 Sudoeste 11 Noroeste 0 952.3 -1.1 43
2020-03-12 12:00:00 17.8 7 Noroeste 11 Norte 0 952.9 -0.5 59
2020-03-12 11:00:00 15 8 Noroeste 11 Noroeste 0 953.3 0.1 67
2020-03-12 10:00:00 11.8 5 Norte 13 Norte 0 953.4 0.4 76
2020-03-12 09:00:00 9.7 6 Norte 9 Norte 0 953.4 0.4 86
2020-03-12 08:00:00 7.4 4 Norte 8 Norte 0 953.2 0 89
2020-03-12 07:00:00 7.3 7 Norte 11 Norte 0 953 -0.6 88
2020-03-12 06:00:00 7.5 7 Norte 9 Norte 0 953 -1.1 90
2020-03-12 05:00:00 8 4 Noroeste 8 Norte 0 953.2 -1.2 88
2020-03-12 04:00:00 9.2 6 Norte -- -- 0 953.6 -0.9 86
2020-03-12 03:00:00 9.8 6 Norte 9 Norte 0 954.1 -0.6 83
2020-03-12 02:00:00 10.6 8 Norte -- -- 0 954.4 -0.4 80
2020-03-12 01:00:00 11.7 7 Noroeste 11 Noroeste 0 954.5 0.2 77
2020-03-12 00:00:00 12.7 6 Norte 9 Norte 0 954.7 0.6 73
2020-03-11 23:00:00 14.2 5 Norte 9 Norte 0 954.8 0.7 67
2020-03-11 22:00:00 16.9 6 Sudeste 9 Sudeste 0 954.3 0.3 55
2020-03-11 21:00:00 18.5 3 Sur 13 Sudoeste 0 954.1 0.3 50
2020-03-11 20:00:00 20.3 8 Sur 15 Sur 0 954.1 0.3 45
2020-03-11 19:00:00 21.8 6 Sur 15 Sudoeste 0 954 0 42
2020-03-11 18:00:00 24 9 Sur 17 Sudoeste 0 953.8 -0.8 37
2020-03-11 17:00:00 24.4 11 Sur 21 Sudoeste 0 953.8 -2 36
2020-03-11 16:00:00 25.5 9 Sur 18 Sudoeste 0 954 -2.5 33
2020-03-11 15:00:00 24.6 3 Sudeste 15 Sudoeste 0 954.6 -2.7 35
2020-03-11 14:00:00 22.7 4 Este 13 Sudoeste 0 955.8 -2 39
2020-03-11 13:00:00 21.2 7 Sur 17 Sudoeste 0 956.5 -1.2 43
2020-03-11 12:00:00 18.8 7 Sur 13 Sudeste 0 957.3 -0.2 49
2020-03-11 11:00:00 15.1 4 Sudoeste 8 Sudoeste 0 957.8 0.5 57
2020-03-11 10:00:00 11.2 3 Norte 5 Noroeste 0 957.7 0.6 71
2020-03-11 09:00:00 7.6 4 Norte 8 Norte 0 957.5 0.6 82
2020-03-11 08:00:00 4.7 5 Norte 9 Norte 0 957.3 0.6 91
2020-03-11 07:00:00 4.9 3 Norte 8 Norte 0 957.1 0.3 89
2020-03-11 06:00:00 5.8 4 Norte -- -- 0 956.9 -0.2 88
2020-03-11 05:00:00 6.3 4 Norte 8 Nordeste 0 956.7 -0.7 87
2020-03-11 04:00:00 6.9 6 Norte 11 Norte 0 956.8 -0.8 84
2020-03-11 03:00:00 7.9 3 Norte 8 Noroeste 0 957.1 -0.4 80
2020-03-11 02:00:00 8.8 6 Norte 9 Norte 0 957.4 -0.3 77
2020-03-11 01:00:00 10.1 7 Norte 9 Norte 0 957.6 0.2 70
2020-03-11 00:00:00 11.9 6 Sudeste 8 Sudeste 0 957.5 0.5 60
2020-03-10 23:00:00 12.8 5 Este 9 Este 0 957.7 1.1 57
2020-03-10 22:00:00 13.8 2 Este 9 Sur 0 957.4 1.1 54
2020-03-10 21:00:00 17 6 Sur 13 Sur 0 957 0.6 45
2020-03-10 20:00:00 19 11 Sur 18 Sur 0 956.6 0.1 40
2020-03-10 19:00:00 21.8 14 Sudoeste 21 Sudoeste 0 956.3 -0.7 34
2020-03-10 18:00:00 23.3 12 Sudoeste 22 Sudoeste 0 956.4 -1.2 34
2020-03-10 17:00:00 23.3 11 Sur 18 Sur 0 956.5 -1.7 31
2020-03-10 16:00:00 22.4 9 Sur 15 Sudoeste 0 957 -2.1 32
2020-03-10 15:00:00 20.9 5 Sur 17 Sur 0 957.6 -1.8 33
2020-03-10 14:00:00 19.6 8 Sur 15 Sur 0 958.2 -1.4 36
2020-03-10 13:00:00 18 6 Sur 15 Oeste 0 959.1 -0.3 37
2020-03-10 12:00:00 15.8 5 Sur 15 Sur -- 959.4 0.1 42
2020-03-10 11:00:00 13.1 2 Sur 11 Oeste 0 959.6 0.8 47
2020-03-10 10:00:00 9.9 4 Sur 9 Sudoeste 0 959.4 0.7 57
2020-03-10 09:00:00 6.4 0 Calma 8 Norte 0 959.3 0.9 74
2020-03-10 08:00:00 3.8 4 Norte 5 Norte 0 958.8 0.7 79
2020-03-10 07:00:00 3.6 4 Norte 9 Nordeste 0 958.7 0.7 78
2020-03-10 06:00:00 4.2 5 Norte 9 Norte 0 958.4 0.4 76
2020-03-10 05:00:00 4 6 Norte -- -- 0 958.1 -0.2 76
2020-03-10 04:00:00 4.3 0 Calma 9 Norte 0 958 -0.3 73
2020-03-10 03:00:00 4.6 3 Este 8 Este 0 958 -0.3 71
2020-03-10 02:00:00 6 3 Sudeste 8 Sudeste 0 958.3 0.1 64
2020-03-10 01:00:00 6.9 0 Calma 8 Norte 0 958.3 0.6 61
2020-03-10 00:00:00 8.3 0 Calma 5 Sur 0 958.3 0.7 56
2020-03-09 23:00:00 9.1 5 Este 17 Noroeste 0 958.2 1.1 52
2020-03-09 22:00:00 11 12 Noroeste 18 Norte 0 957.7 1.1 48
2020-03-09 21:00:00 12.6 14 Norte 24 Norte 0 957.6 1.4 42
2020-03-09 20:00:00 13.7 12 Norte 22 Norte 0 957.1 0.9 39
2020-03-09 19:00:00 15.1 13 Norte 28 Norte 0 956.6 0.2 37
2020-03-09 18:00:00 17.6 15 Norte 21 Norte 0 956.2 -0.2 32
2020-03-09 17:00:00 18 10 Noroeste 21 Norte 0 956.2 -1.4 31
2020-03-09 16:00:00 18.1 15 Norte 24 Norte 0 956.4 -1.6 30
2020-03-09 15:00:00 17 8 Sudoeste 18 Oeste 0 956.4 -2.3 37
2020-03-09 14:00:00 16 5 Este 24 Norte 0 957.6 -1.2 39
2020-03-09 13:00:00 15.1 9 Sudoeste 17 Oeste 0 958 -0.4 42
2020-03-09 12:00:00 13.6 8 Norte 18 Norte 0 958.7 0.9 46
2020-03-09 11:00:00 12.3 13 Norte 18 Norte 0 958.8 1.7 53
2020-03-09 10:00:00 9.9 2 Noroeste 11 Norte 0 958.4 2.1 66
2020-03-09 09:00:00 6.6 4 Noroeste 8 Oeste 0 957.8 1.9 76
2020-03-09 08:00:00 5.6 0 Calma 13 Norte 0 957.1 1.4 74
2020-03-09 07:00:00 7.2 2 Este 21 Oeste 0 956.3 0.4 69
2020-03-09 06:00:00 9.1 18 Oeste 33 Oeste 0 955.9 -0.3 63
2020-03-09 05:00:00 9.7 15 Oeste 37 Noroeste 0 955.7 -1.1 59
2020-03-09 04:00:00 10.2 20 Oeste 35 Oeste 0 955.9 -0.6 60
2020-03-09 03:00:00 10.8 23 Oeste 35 Oeste 0 956.2 -0.7 63
2020-03-09 02:00:00 10.6 24 Oeste 32 Noroeste 0 956.8 0.2 66
2020-03-09 01:00:00 9.8 9 Oeste 26 Oeste 0 956.5 0.1 67
2020-03-09 00:00:00 11.6 16 Oeste 30 Oeste 0 956.9 0.5 61
2020-03-08 23:00:00 12.2 25 Oeste 37 Oeste 0 956.6 0.9 58
2020-03-08 22:00:00 12.9 21 Oeste 32 Oeste 0 956.4 1.1 59
2020-03-08 21:00:00 13.8 22 Oeste 37 Oeste 0 956.4 1.1 55
2020-03-08 20:00:00 14.4 12 Oeste 28 Oeste 0 955.7 0.4 53
2020-03-08 19:00:00 14.9 14 Oeste 24 Sudoeste 0 955.3 0.1 50
2020-03-08 18:00:00 15.6 16 Sudoeste 28 Sudoeste 0 955.3 -0.7 44
2020-03-08 17:00:00 16.2 14 Oeste 26 Sudoeste 0 955.3 -1.1 40
2020-03-08 16:00:00 15.7 12 Sudoeste 22 Sudoeste 0 955.2 -2.1 40
2020-03-08 15:00:00 15.2 9 Sudoeste 21 Sudoeste 0 956 -2 40
2020-03-08 14:00:00 15.7 3 Sur 21 Oeste 0 956.4 -2.1 39
2020-03-08 13:00:00 14 4 Sur 18 Sudoeste 0 957.3 -1 43
2020-03-08 12:00:00 11.8 7 Sur 15 Sur 0 958 0.3 55
2020-03-08 11:00:00 8.8 8 Sur 15 Sur 0 958.5 1 65
2020-03-08 10:00:00 5 3 Sudoeste 8 Sudoeste 0 958.3 1 77
2020-03-08 09:00:00 1.5 0 Calma 5 Norte 0 957.7 0.5 87
2020-03-08 08:00:00 -0.8 5 Norte 9 Norte 0 957.5 0.4 92
2020-03-08 07:00:00 -0.5 6 Norte 9 Norte 0 957.3 0.1 91
2020-03-08 06:00:00 0.1 5 Norte 8 Norte 0 957.2 -0.4 91
2020-03-08 05:00:00 0.5 5 Norte 9 Norte 0 957.1 -0.2 89
2020-03-08 04:00:00 1.3 3 Norte 13 Noroeste 0 957.2 -0.4 86
2020-03-08 03:00:00 2.5 5 Noroeste 11 Nordeste 0 957.6 -0.5 82
2020-03-08 02:00:00 3.5 4 Noroeste 5 Noroeste 0 957.3 -0.6 81
2020-03-08 01:00:00 5 5 Norte 13 Nordeste 0 957.6 0.1 75
2020-03-08 00:00:00 6.4 4 Norte 8 Norte 0 958.1 0.7 69
2020-03-07 23:00:00 8.2 7 Sur 11 Nordeste 0 957.9 1 62
2020-03-07 22:00:00 8.2 6 Norte 11 Norte 0 957.5 1.2 63
2020-03-07 21:00:00 10.3 9 Norte 15 Norte 0 957.4 1.4 56
2020-03-07 20:00:00 11.6 5 Sur 8 Sur 0 956.9 0.9 49
2020-03-07 19:00:00 15.1 4 Este 9 Sur 0 956.3 0.1 40
2020-03-07 18:00:00 16.4 5 Este 15 Norte 0 956 -0.5 38
2020-03-07 17:00:00 17.1 4 Noroeste 18 Noroeste 0 956 -1.2 37
2020-03-07 16:00:00 16.4 11 Norte 26 Norte 0 956.2 -1.3 39
2020-03-07 15:00:00 15.7 13 Norte 28 Norte 0 956.5 -1.6 41
2020-03-07 14:00:00 14.3 18 Norte 41 Norte 0 957.2 -1.3 42
2020-03-07 13:00:00 13.6 26 Norte 35 Norte 0 957.5 -- 45
2020-03-07 12:00:00 11.4 8 Noroeste 18 Oeste 0 958.1 0.1 48
2020-03-07 11:00:00 9.5 4 Norte -- -- -- 958.5 1.2 52
2020-03-07 10:00:00 -- -- -- -- -- -- -- -- --
2020-03-07 09:00:00 3.9 10 Oeste 15 Norte 0 958 1.9 66
2020-03-07 08:00:00 0.5 9 Norte 15 Nordeste 0 957.3 1.4 76
2020-03-07 07:00:00 0.9 0 Calma 9 Este 0 956.9 0.8 71
2020-03-07 06:00:00 1.7 4 Sudeste 8 Este 0 956.1 -0.1 68
2020-03-07 05:00:00 1.1 2 Sudoeste 8 Sudeste 0 955.9 -0.3 69
2020-03-07 04:00:00 1.6 3 Norte 11 Norte 0 956.1 0.2 65
2020-03-07 03:00:00 2.6 6 Este 9 Este 0 956.2 0.9 60
2020-03-07 02:00:00 4 2 Noroeste 21 Noroeste 0 956.2 1.3 54
2020-03-07 01:00:00 5.2 5 Oeste 17 Norte 0 955.9 1.8 51
2020-03-07 00:00:00 6.5 11 Norte 17 Norte 0 955.3 1.9 45
2020-03-06 23:00:00 8.1 3 Nordeste 45 Norte 0 954.9 2 39
2020-03-06 22:00:00 9.1 13 Norte 32 Nordeste 0 954.1 1.6 37
2020-03-06 21:00:00 8.2 12 Noroeste 22 Norte 0 953.4 1.9 41
2020-03-06 20:00:00 8.7 9 Noroeste 28 Norte 0 952.9 2.1 39
2020-03-06 19:00:00 10.9 17 Norte 35 Norte 0 952.5 1.8 34
2020-03-06 18:00:00 11.6 19 Norte 35 Noroeste 0 951.5 1 31
2020-03-06 17:00:00 12.9 25 Noroeste 46 Noroeste 0 950.8 -0.1 31
2020-03-06 16:00:00 12.8 23 Noroeste 41 Norte 0 950.7 -0.1 33
2020-03-06 15:00:00 12.5 28 Noroeste 46 Noroeste 0 950.5 -0.1 33
2020-03-06 14:00:00 11.4 29 Noroeste 48 Noroeste 0 950.9 1.1 36
2020-03-06 13:00:00 11.8 31 Noroeste 55 Noroeste 0 950.8 2.3 38
2020-03-06 12:00:00 11.3 41 Noroeste 58 Oeste 0 950.6 1.9 39
2020-03-06 11:00:00 10.5 42 Oeste 65 Noroeste 0 949.8 1.7 44
2020-03-06 10:00:00 9.4 49 Oeste 67 Oeste 0 948.5 1.1 47
2020-03-06 09:00:00 8.4 49 Oeste 65 Noroeste 0 948.7 1.4 53
2020-03-06 08:00:00 8 44 Noroeste 61 Noroeste 0 948.1 0.9 56
2020-03-06 07:00:00 8.1 19 Oeste 37 Sudoeste 0 947.4 0.1 61
2020-03-06 06:00:00 6.8 15 Sudoeste 30 Sudoeste 0 947.3 -0.7 68
2020-03-06 05:00:00 8.2 22 Oeste 39 Oeste 0 947.2 -1.2 63
2020-03-06 04:00:00 8.2 30 Oeste 42 Oeste 0 947.3 -0.9 57
2020-03-06 03:00:00 7.9 19 Oeste 33 Oeste 0 948 -0.1 58
2020-03-06 02:00:00 8.8 25 Oeste 50 Oeste 0 948.4 0.3 54
2020-03-06 01:00:00 9 33 Oeste 55 Oeste 0 948.2 0.6 55
2020-03-06 00:00:00 9.9 24 Oeste 46 Oeste 0 948.1 1 56
2020-03-05 23:00:00 10.6 31 Oeste 48 Oeste 0 948.1 2 56
2020-03-05 22:00:00 11.5 28 Oeste 45 Oeste 0 947.6 2 52
2020-03-05 21:00:00 11.6 16 Oeste 46 Oeste 0 947.1 1.7 52
2020-03-05 20:00:00 12.2 26 Oeste 58 Noroeste 0 946.1 0.9 56
2020-03-05 19:00:00 13.9 23 Oeste 41 Oeste 0 945.6 0.8 44
2020-03-05 18:00:00 14.8 22 Noroeste 48 Noroeste 0 945.4 1 43
2020-03-05 17:00:00 15.2 30 Oeste 48 Noroeste 0 945.2 0.9 40
2020-03-05 16:00:00 15.1 32 Noroeste 55 Oeste 0 944.8 0.1 40
2020-03-05 15:00:00 15.9 37 Oeste 63 Oeste 0 944.4 -0.7 39
2020-03-05 14:00:00 15.3 33 Oeste 52 Oeste 0 944.3 -0.2 46
2020-03-05 13:00:00 13.2 30 Oeste 48 Oeste 0.4 944.7 -0.1 63
2020-03-05 12:00:00 12.4 32 Oeste 55 Oeste 0 945.1 0.6 84
2020-03-05 11:00:00 12.8 37 Sudoeste 72 Sudoeste 0 944.5 0.3 75
2020-03-05 10:00:00 12.3 32 Sudoeste 50 Sudoeste 0 944.8 -- 78
2020-03-05 09:00:00 12.2 34 Sudoeste 54 Sudoeste 0 944.5 -- 78
2020-03-05 08:00:00 12 29 Sudoeste -- -- -- 944.2 -- 81
2020-03-05 07:00:00 -- -- -- -- -- -- -- -- --
2020-03-05 06:00:00 -- -- -- -- -- -- -- -- --
2020-03-05 05:00:00 -- -- -- -- -- -- -- -- --
2020-03-05 04:00:00 10.7 26 Sudoeste 35 Sudoeste 0 947.3 -2.5 89
2020-03-05 03:00:00 11.6 19 Sudoeste 28 Sudoeste 0 948.5 -1.8 81
2020-03-05 02:00:00 12 18 Sudoeste 33 Sudoeste 0 949 -1.8 78
2020-03-05 01:00:00 12.4 23 Sudoeste 30 Oeste 0 949.8 -1.3 77
2020-03-05 00:00:00 12.6 14 Sudoeste 22 Sudoeste 0 950.3 -0.7 75
2020-03-04 23:00:00 13 12 Sudoeste 26 Sudoeste 0 950.8 -0.2 69
2020-03-04 22:00:00 14.1 14 Sudoeste 26 Oeste 0 951.1 0.4 52
2020-03-04 21:00:00 14.6 18 Oeste 32 Oeste 0 951 0.6 50
2020-03-04 20:00:00 14.9 22 Oeste 33 Oeste 0 951 0 50
2020-03-04 19:00:00 15.5 26 Oeste 37 Oeste 0 950.7 -0.6 48
2020-03-04 18:00:00 16.9 27 Oeste 48 Oeste 0 950.4 -1.2 45
2020-03-04 17:00:00 17.3 34 Oeste 46 Oeste 0 951 -1.2 47
2020-03-04 16:00:00 17.9 31 Oeste 42 Oeste 0 951.3 -1.3 45
2020-03-04 15:00:00 18.3 30 Oeste 41 Oeste 0 951.6 -1.5 45
2020-03-04 14:00:00 18 23 Oeste 41 Oeste 0 952.2 -1 44
2020-03-04 13:00:00 17.3 30 Oeste 45 Noroeste 0 952.6 -0.6 46
2020-03-04 12:00:00 16.9 29 Oeste 45 Oeste 0 953.1 0.4 48
2020-03-04 11:00:00 15.6 27 Oeste 39 Oeste 0 953.2 0.9 58
2020-03-04 10:00:00 13.4 23 Sudoeste 37 Sudoeste 0 953.2 1.2 74
2020-03-04 09:00:00 12.5 24 Sudoeste 35 Sudoeste 0 952.7 1 82
2020-03-04 08:00:00 11.4 25 Sudoeste 35 Oeste 0 952.3 0.8 87
2020-03-04 07:00:00 11.5 9 Sudeste 33 Sudoeste 0 952 0.6 88
2020-03-04 06:00:00 12.1 19 Sudoeste 32 Sudoeste 0 951.7 0 84
2020-03-04 05:00:00 11.9 22 Sudoeste 32 Sudoeste 0 951.5 -0.3 86
2020-03-04 04:00:00 11.8 26 Sudoeste 41 Sudoeste 0 951.4 0 89
2020-03-04 03:00:00 12.3 27 Sudoeste 33 Sudoeste 0 951.7 0.5 86
2020-03-04 02:00:00 13.1 24 Sudoeste 33 Sudoeste 0 951.8 0.8 81
2020-03-04 01:00:00 12.9 20 Sudoeste 32 Oeste 0 951.4 0.7 81
2020-03-04 00:00:00 13.2 15 Oeste 37 Oeste 0 951.2 1.2 81
2020-03-03 23:00:00 13.5 23 Sudoeste 41 Oeste 0 951 1.3 79
2020-03-03 22:00:00 13.9 22 Oeste 42 Oeste 0 950.7 1.7 77
2020-03-03 21:00:00 14.1 25 Sudoeste 37 Sudoeste 0 950 1.5 75
2020-03-03 20:00:00 14 22 Sudoeste 41 Sudoeste 0 949.7 1.7 75
2020-03-03 19:00:00 14.3 18 Sudoeste 33 Sudoeste 0 949 1 72
2020-03-03 18:00:00 15 21 Sudoeste -- -- -- 948.5 0.4 70
2020-03-03 17:00:00 15.6 22 Sur 46 Sudoeste 0 948 -0.4 67
2020-03-03 16:00:00 15.1 25 Sudoeste 58 Sudoeste 0 948 -0.8 66
2020-03-03 15:00:00 14.9 28 Sudoeste 42 Sudoeste 0 948.1 -1 65
2020-03-03 14:00:00 13.3 30 Sudoeste 46 Sudoeste 0 948.4 -0.7 68
2020-03-03 13:00:00 11.2 25 Sudoeste 54 Sudoeste 0 948.8 -0.2 73
2020-03-03 12:00:00 10.8 27 Sudoeste 54 Sudoeste 0 949.1 -0.1 74
2020-03-03 11:00:00 9.1 28 Sudoeste 50 Sudoeste 0 949.1 0.2 80
2020-03-03 10:00:00 7.7 30 Sudoeste 41 Sudoeste 0 949 0.1 80
2020-03-03 09:00:00 7.2 24 Sur 37 Sudoeste 0 949.2 -0.1 73
2020-03-03 08:00:00 6.7 14 Sur 39 Sudoeste 0 948.9 0.1 72
2020-03-03 07:00:00 6.8 18 Sur 26 Sudoeste 0 948.9 -0.6 67
2020-03-03 06:00:00 6.7 20 Sudoeste 33 Sudoeste 0 949.3 -0.6 65
2020-03-03 05:00:00 8.1 23 Sudoeste 42 Oeste 0 948.8 -1.6 55
2020-03-03 04:00:00 7.9 20 Oeste 42 Oeste 0 949.5 -0.7 56
2020-03-03 03:00:00 7.2 21 Sudoeste 41 Oeste 0 949.9 -0.1 55
2020-03-03 02:00:00 7.3 19 Sudoeste 37 Oeste 0 950.4 0.4 55
2020-03-03 01:00:00 7.3 12 Sudoeste 32 Sudoeste 0 950.2 0.5 55
2020-03-03 00:00:00 7.6 16 Sudoeste 35 Oeste 0 950 0.9 53
2020-03-02 23:00:00 7.9 22 Oeste 32 Sudoeste 0 950 1.6 53
2020-03-02 22:00:00 8.5 22 Sudoeste 37 Oeste 0 949.7 2.4 49
2020-03-02 21:00:00 8.4 18 Oeste 39 Oeste 0 949.1 3.4 45
2020-03-02 20:00:00 8.5 22 Oeste 42 Noroeste 0 948.4 3.5 50
2020-03-02 19:00:00 9.2 36 Oeste 50 Oeste 0 947.3 3.7 48
2020-03-02 18:00:00 10.8 34 Noroeste 55 Noroeste 0 945.7 2.9 40
2020-03-02 17:00:00 11.2 43 Oeste 71 Oeste 0 944.9 2.4 39
2020-03-02 16:00:00 12 47 Noroeste 72 Oeste 0 943.6 2.2 40
2020-03-02 15:00:00 10.4 49 Oeste 78 Noroeste 0 942.8 1.8 49
2020-03-02 14:00:00 10 47 Noroeste 78 Noroeste 0 942.5 2 57
2020-03-02 13:00:00 11.8 33 Oeste 63 Oeste 0 941.4 1.8 49
2020-03-02 12:00:00 11.8 40 Oeste 67 Noroeste 0 941 2.6 50
2020-03-02 11:00:00 12 40 Oeste 65 Oeste 0 940.5 3.9 46
2020-03-02 10:00:00 11.5 40 Oeste 61 Oeste 0 939.6 4.2 49
2020-03-02 09:00:00 10.5 39 Oeste 68 Oeste 0 938.4 4.2 60
2020-03-02 08:00:00 11.2 49 Oeste 68 Noroeste 0 936.6 1.8 64
2020-03-02 07:00:00 11.5 35 Oeste 71 Sudoeste 1.9 935.4 -0.4 90
2020-03-02 06:00:00 11.8 48 Sudoeste 71 Sudoeste 0 934.2 -2.1 86
2020-03-02 05:00:00 11.6 44 Sudoeste 72 Sudoeste 0 934.8 -2.5 84
2020-03-02 04:00:00 11.7 50 Sudoeste 85 Sudoeste 0 935.8 -2.4 82
2020-03-02 03:00:00 12 58 Sudoeste 95 Sudoeste 0 936.3 -3.6 81
2020-03-02 02:00:00 12.3 59 Sudoeste 82 Sudoeste 0 937.3 -3.6 79
2020-03-02 01:00:00 11.9 39 Sudoeste 68 Sudoeste 0.6 938.2 -4 88
2020-03-02 00:00:00 12.1 36 Sudoeste 55 Sudoeste 0.6 939.9 -3.2 86
2020-03-01 23:00:00 11.8 23 Sur 35 Sur 0 940.9 -2.5 89
2020-03-01 22:00:00 11.9 26 Sur 42 Sudoeste 0 942.2 -1.6 88
2020-03-01 21:00:00 12 28 Sur 41 Sudoeste 0.2 943.1 -0.9 87
2020-03-01 20:00:00 12.5 19 Sur 48 Sur 0 943.4 -0.5 84
2020-03-01 19:00:00 13.5 30 Sudoeste 52 Sudoeste 0 943.8 -1 72
2020-03-01 18:00:00 14.4 31 Sudoeste 65 Sudoeste 0 944 -1.3 70
2020-03-01 17:00:00 15.1 33 Sudoeste 54 Sudoeste 0 943.9 -2.1 63
2020-03-01 16:00:00 14.5 28 Sudoeste 54 Sudoeste 0 944.8 -2.3 66
2020-03-01 15:00:00 13.9 37 Sudoeste 54 Sudoeste 0 945.3 -1.9 69
2020-03-01 14:00:00 13.4 33 Sudoeste 61 Sudoeste 0 946 -1.3 67
2020-03-01 13:00:00 12.5 28 Sudoeste 58 Sudoeste 0 947.1 -0.2 69
2020-03-01 12:00:00 11.8 28 Sudoeste 55 Sudoeste 0 947.2 0.7 73
2020-03-01 11:00:00 10.8 22 Sudoeste 46 Sudoeste 0 947.3 0.8 77
2020-03-01 10:00:00 9.8 26 Sudoeste 48 Sudoeste 0 947.3 0.9 82
2020-03-01 09:00:00 9.6 21 Sudoeste 41 Sudoeste 0 946.5 0.4 80
2020-03-01 08:00:00 9.3 22 Sudoeste 37 Oeste 0 946.5 1.2 80
2020-03-01 07:00:00 9.3 20 Sudoeste 33 Sudoeste 0 946.4 0.3 80
2020-03-01 06:00:00 9.1 19 Sudoeste 35 Sudoeste 0 946.1 -0.5 79
2020-03-01 05:00:00 9.3 25 Sudoeste 39 Sudoeste 0 945.3 -1.4 77
2020-03-01 04:00:00 9.4 21 Sudoeste 37 Sudoeste 0 946.1 -0.5 75
2020-03-01 03:00:00 9.7 23 Sudoeste 32 Sudoeste 0 946.6 -0.3 73
2020-03-01 02:00:00 10 21 Sudoeste 39 Sudoeste 0 946.7 -0.6 71
2020-03-01 01:00:00 10.2 24 Sudoeste 41 Sudoeste 0 946.6 -0.1 68
2020-03-01 00:00:00 10.5 22 Sudoeste 37 Sudoeste 0 946.9 0.9 66
2020-02-29 23:00:00 11.1 23 Oeste 35 Sudoeste 0 947.3 1.7 67
2020-02-29 22:00:00 11.7 22 Oeste 42 Oeste 0 946.7 1.8 64
2020-02-29 21:00:00 12.4 32 Sudoeste 50 Sudoeste 0 946 1.1 58
2020-02-29 20:00:00 13.2 30 Sudoeste 45 Sudoeste 0 945.6 0.7 57
2020-02-29 19:00:00 13.6 28 Sudoeste 48 Sudoeste 0 944.9 0 63
2020-02-29 18:00:00 13.7 28 Sudoeste 65 Oeste 0 944.9 0 70
2020-02-29 17:00:00 13.3 33 Sudoeste 54 Sudoeste 0 944.9 -0.6 72
2020-02-29 16:00:00 13.3 31 Sudoeste 55 Sudoeste 0 944.9 -1.5 73
2020-02-29 15:00:00 14.4 33 Sudoeste 52 Sudoeste 0 944.9 -2 64
2020-02-29 14:00:00 14.3 32 Sudoeste 58 Sudoeste 0 945.5 -1.5 63
2020-02-29 13:00:00 12.8 31 Sudoeste 61 Sudoeste 0 946.4 -0.5 67
2020-02-29 12:00:00 11.7 29 Sudoeste 58 Sudoeste 0 946.9 1.2 73
2020-02-29 11:00:00 10.1 29 Sudoeste 48 Sudoeste 0 947 1.5 79
2020-02-29 10:00:00 9.1 30 Sudoeste 55 Sudoeste 0 946.9 1.2 81
2020-02-29 09:00:00 8.4 31 Sudoeste 54 Sudoeste 0 945.7 -0.3 78
2020-02-29 08:00:00 9.2 31 Sudoeste 42 Sudoeste 0 945.5 -0.1 67
2020-02-29 07:00:00 9.9 25 Sudoeste 35 Sudoeste 0 945.7 -0.5 63
2020-02-29 06:00:00 9.9 17 Sur 30 Sudoeste 0 946 -0.9 62
2020-02-29 05:00:00 10.8 23 Sudoeste 33 Sudoeste 0 945.6 -1.5 61
2020-02-29 04:00:00 8 8 Norte 24 Sur 0 946.2 -1.5 63
2020-02-29 03:00:00 4.7 3 Sudeste 11 Norte 0 946.9 -1.3 77
2020-02-29 02:00:00 5.1 4 Norte 11 Norte 0 947.1 -1.4 76
2020-02-29 01:00:00 6 6 Norte 9 Norte 0 947.7 -1 73
2020-02-29 00:00:00 7.6 5 Norte 9 Norte 0 948.2 -0.5 66